sensor_id;sensor_type;location;lat;lon;timestamp;P1;durP1;ratioP1;P2;durP2;ratioP2
44766;SDS011;30487;48.716;9.272;2023-01-16T00:01:54;3.85;;;0.60;;
44766;SDS011;30487;48.716;9.272;2023-01-16T00:04:21;3.05;;;0.60;;
44766;SDS011;30487;48.716;9.272;2023-01-16T00:06:47;3.88;;;0.55;;
44766;SDS011;30487;48.716;9.272;2023-01-16T00:09:13;2.88;;;0.73;;
44766;SDS011;30487;48.716;9.272;2023-01-16T00:11:39;1.75;;;0.47;;
44766;SDS011;30487;48.716;9.272;2023-01-16T00:14:04;4.30;;;0.60;;
44766;SDS011;30487;48.716;9.272;2023-01-16T00:16:30;4.72;;;0.70;;
44766;SDS011;30487;48.716;9.272;2023-01-16T00:18:56;3.20;;;0.60;;
44766;SDS011;30487;48.716;9.272;2023-01-16T00:21:22;2.08;;;0.60;;
44766;SDS011;30487;48.716;9.272;2023-01-16T00:23:54;3.13;;;0.70;;
44766;SDS011;30487;48.716;9.272;2023-01-16T00:26:20;3.35;;;0.60;;
44766;SDS011;30487;48.716;9.272;2023-01-16T00:28:46;4.70;;;0.63;;
44766;SDS011;30487;48.716;9.272;2023-01-16T00:31:12;3.90;;;0.80;;
44766;SDS011;30487;48.716;9.272;2023-01-16T00:33:37;5.05;;;0.90;;
44766;SDS011;30487;48.716;9.272;2023-01-16T00:36:03;2.92;;;0.73;;
44766;SDS011;30487;48.716;9.272;2023-01-16T00:38:29;3.38;;;0.60;;
44766;SDS011;30487;48.716;9.272;2023-01-16T00:40:56;5.63;;;0.60;;
44766;SDS011;30487;48.716;9.272;2023-01-16T00:43:22;3.80;;;0.55;;
44766;SDS011;30487;48.716;9.272;2023-01-16T00:45:47;2.88;;;0.50;;
44766;SDS011;30487;48.716;9.272;2023-01-16T00:48:13;1.90;;;0.60;;
44766;SDS011;30487;48.716;9.272;2023-01-16T00:50:39;2.42;;;0.40;;
44766;SDS011;30487;48.716;9.272;2023-01-16T00:53:04;1.52;;;0.60;;
44766;SDS011;30487;48.716;9.272;2023-01-16T00:55:32;2.40;;;0.60;;
44766;SDS011;30487;48.716;9.272;2023-01-16T00:57:58;3.03;;;0.70;;
44766;SDS011;30487;48.716;9.272;2023-01-16T01:00:24;2.33;;;0.57;;
44766;SDS011;30487;48.716;9.272;2023-01-16T01:02:50;3.38;;;0.70;;
44766;SDS011;30487;48.716;9.272;2023-01-16T01:05:16;2.50;;;0.57;;
44766;SDS011;30487;48.716;9.272;2023-01-16T01:07:42;3.40;;;0.60;;
44766;SDS011;30487;48.716;9.272;2023-01-16T01:10:08;3.35;;;0.60;;
44766;SDS011;30487;48.716;9.272;2023-01-16T01:12:35;1.60;;;0.50;;
44766;SDS011;30487;48.716;9.272;2023-01-16T01:15:01;2.97;;;0.50;;
44766;SDS011;30487;48.716;9.272;2023-01-16T01:17:26;2.92;;;0.60;;
44766;SDS011;30487;48.716;9.272;2023-01-16T01:19:52;2.42;;;0.63;;
44766;SDS011;30487;48.716;9.272;2023-01-16T01:22:18;3.95;;;0.60;;
44766;SDS011;30487;48.716;9.272;2023-01-16T01:24:46;5.40;;;0.60;;
44766;SDS011;30487;48.716;9.272;2023-01-16T01:27:14;2.03;;;0.50;;
44766;SDS011;30487;48.716;9.272;2023-01-16T01:29:40;2.42;;;0.30;;
44766;SDS011;30487;48.716;9.272;2023-01-16T01:32:06;4.22;;;0.55;;
44766;SDS011;30487;48.716;9.272;2023-01-16T01:34:32;2.20;;;0.50;;
44766;SDS011;30487;48.716;9.272;2023-01-16T01:37:00;2.03;;;0.40;;
44766;SDS011;30487;48.716;9.272;2023-01-16T01:39:26;2.60;;;0.50;;
44766;SDS011;30487;48.716;9.272;2023-01-16T01:41:52;4.30;;;0.50;;
44766;SDS011;30487;48.716;9.272;2023-01-16T01:44:49;5.32;;;0.73;;
44766;SDS011;30487;48.716;9.272;2023-01-16T01:47:17;3.20;;;0.82;;
44766;SDS011;30487;48.716;9.272;2023-01-16T01:49:48;4.13;;;0.70;;
44766;SDS011;30487;48.716;9.272;2023-01-16T01:52:15;1.20;;;0.52;;
44766;SDS011;30487;48.716;9.272;2023-01-16T01:54:44;4.45;;;0.70;;
44766;SDS011;30487;48.716;9.272;2023-01-16T01:57:13;2.17;;;0.60;;
44766;SDS011;30487;48.716;9.272;2023-01-16T01:59:45;1.65;;;0.50;;
44766;SDS011;30487;48.716;9.272;2023-01-16T02:02:17;1.52;;;0.50;;
44766;SDS011;30487;48.716;9.272;2023-01-16T02:04:45;2.83;;;0.60;;
44766;SDS011;30487;48.716;9.272;2023-01-16T02:07:17;4.00;;;0.60;;
44766;SDS011;30487;48.716;9.272;2023-01-16T02:09:44;1.30;;;0.50;;
44766;SDS011;30487;48.716;9.272;2023-01-16T02:12:14;2.22;;;0.50;;
44766;SDS011;30487;48.716;9.272;2023-01-16T02:14:42;2.08;;;0.50;;
44766;SDS011;30487;48.716;9.272;2023-01-16T02:17:11;2.28;;;0.50;;
44766;SDS011;30487;48.716;9.272;2023-01-16T02:36:41;2.13;;;0.38;;
44766;SDS011;30487;48.716;9.272;2023-01-16T02:45:04;2.60;;;0.50;;
44766;SDS011;30487;48.716;9.272;2023-01-16T02:50:40;4.68;;;0.65;;
44766;SDS011;30487;48.716;9.272;2023-01-16T02:55:58;2.08;;;0.70;;
44766;SDS011;30487;48.716;9.272;2023-01-16T02:58:32;1.92;;;0.43;;
44766;SDS011;30487;48.716;9.272;2023-01-16T03:00:59;2.33;;;0.60;;
44766;SDS011;30487;48.716;9.272;2023-01-16T03:06:04;2.85;;;0.63;;
44766;SDS011;30487;48.716;9.272;2023-01-16T03:11:22;2.42;;;0.50;;
44766;SDS011;30487;48.716;9.272;2023-01-16T03:16:36;4.93;;;0.60;;
44766;SDS011;30487;48.716;9.272;2023-01-16T03:33:02;1.60;;;0.47;;
44766;SDS011;30487;48.716;9.272;2023-01-16T03:35:45;1.38;;;0.50;;
44766;SDS011;30487;48.716;9.272;2023-01-16T03:38:16;1.48;;;0.68;;
44766;SDS011;30487;48.716;9.272;2023-01-16T03:40:46;2.88;;;0.75;;
44766;SDS011;30487;48.716;9.272;2023-01-16T03:43:15;2.38;;;0.40;;
44766;SDS011;30487;48.716;9.272;2023-01-16T03:45:50;1.20;;;0.40;;
44766;SDS011;30487;48.716;9.272;2023-01-16T03:48:22;1.00;;;0.45;;
44766;SDS011;30487;48.716;9.272;2023-01-16T03:51:00;2.83;;;0.60;;
44766;SDS011;30487;48.716;9.272;2023-01-16T03:53:30;1.45;;;0.40;;
44766;SDS011;30487;48.716;9.272;2023-01-16T03:56:02;4.68;;;0.82;;
44766;SDS011;30487;48.716;9.272;2023-01-16T03:58:33;2.42;;;0.60;;
44766;SDS011;30487;48.716;9.272;2023-01-16T04:03:48;3.17;;;0.57;;
44766;SDS011;30487;48.716;9.272;2023-01-16T04:06:19;1.35;;;0.50;;
44766;SDS011;30487;48.716;9.272;2023-01-16T04:08:51;0.57;;;0.40;;
44766;SDS011;30487;48.716;9.272;2023-01-16T04:11:18;4.50;;;0.60;;
44766;SDS011;30487;48.716;9.272;2023-01-16T04:13:45;1.38;;;0.45;;
44766;SDS011;30487;48.716;9.272;2023-01-16T04:16:15;3.10;;;0.55;;
44766;SDS011;30487;48.716;9.272;2023-01-16T04:18:43;1.33;;;0.40;;
44766;SDS011;30487;48.716;9.272;2023-01-16T04:21:10;2.15;;;0.60;;
44766;SDS011;30487;48.716;9.272;2023-01-16T04:23:36;1.77;;;0.50;;
44766;SDS011;30487;48.716;9.272;2023-01-16T04:26:01;1.23;;;0.40;;
44766;SDS011;30487;48.716;9.272;2023-01-16T04:28:27;2.70;;;0.57;;
44766;SDS011;30487;48.716;9.272;2023-01-16T04:30:53;1.65;;;0.43;;
44766;SDS011;30487;48.716;9.272;2023-01-16T04:33:18;1.65;;;0.40;;
44766;SDS011;30487;48.716;9.272;2023-01-16T04:35:44;3.03;;;0.60;;
44766;SDS011;30487;48.716;9.272;2023-01-16T04:38:10;2.47;;;0.77;;
44766;SDS011;30487;48.716;9.272;2023-01-16T04:40:37;4.10;;;0.57;;
44766;SDS011;30487;48.716;9.272;2023-01-16T04:43:02;1.30;;;0.47;;
44766;SDS011;30487;48.716;9.272;2023-01-16T04:45:28;1.60;;;0.45;;
44766;SDS011;30487;48.716;9.272;2023-01-16T04:47:54;2.50;;;0.50;;
44766;SDS011;30487;48.716;9.272;2023-01-16T04:50:19;3.08;;;0.60;;
44766;SDS011;30487;48.716;9.272;2023-01-16T04:52:45;3.53;;;0.60;;
44766;SDS011;30487;48.716;9.272;2023-01-16T04:55:11;2.92;;;0.63;;
44766;SDS011;30487;48.716;9.272;2023-01-16T04:57:37;0.80;;;0.40;;
44766;SDS011;30487;48.716;9.272;2023-01-16T05:00:04;5.03;;;0.45;;
44766;SDS011;30487;48.716;9.272;2023-01-16T05:02:31;3.47;;;0.50;;
44766;SDS011;30487;48.716;9.272;2023-01-16T05:04:57;1.88;;;0.50;;
44766;SDS011;30487;48.716;9.272;2023-01-16T05:07:22;2.90;;;0.68;;
44766;SDS011;30487;48.716;9.272;2023-01-16T05:09:50;3.05;;;0.50;;
44766;SDS011;30487;48.716;9.272;2023-01-16T05:12:15;1.67;;;0.50;;
44766;SDS011;30487;48.716;9.272;2023-01-16T05:14:41;1.70;;;0.63;;
44766;SDS011;30487;48.716;9.272;2023-01-16T05:17:06;2.45;;;0.40;;
44766;SDS011;30487;48.716;9.272;2023-01-16T05:19:32;1.08;;;0.50;;
44766;SDS011;30487;48.716;9.272;2023-01-16T05:21:58;1.60;;;0.47;;
44766;SDS011;30487;48.716;9.272;2023-01-16T05:24:23;1.92;;;0.35;;
44766;SDS011;30487;48.716;9.272;2023-01-16T05:26:49;1.98;;;0.32;;
44766;SDS011;30487;48.716;9.272;2023-01-16T05:29:14;3.58;;;0.50;;
44766;SDS011;30487;48.716;9.272;2023-01-16T05:31:40;2.35;;;0.50;;
44766;SDS011;30487;48.716;9.272;2023-01-16T05:34:05;1.75;;;0.47;;
44766;SDS011;30487;48.716;9.272;2023-01-16T05:36:32;1.02;;;0.50;;
44766;SDS011;30487;48.716;9.272;2023-01-16T05:38:58;1.58;;;0.50;;
44766;SDS011;30487;48.716;9.272;2023-01-16T05:41:23;2.58;;;0.57;;
44766;SDS011;30487;48.716;9.272;2023-01-16T05:43:49;5.05;;;0.50;;
44766;SDS011;30487;48.716;9.272;2023-01-16T05:46:14;2.03;;;0.60;;
44766;SDS011;30487;48.716;9.272;2023-01-16T05:48:40;2.08;;;0.40;;
44766;SDS011;30487;48.716;9.272;2023-01-16T05:51:06;1.95;;;0.70;;
44766;SDS011;30487;48.716;9.272;2023-01-16T05:53:31;4.80;;;0.60;;
44766;SDS011;30487;48.716;9.272;2023-01-16T05:55:57;2.03;;;0.60;;
44766;SDS011;30487;48.716;9.272;2023-01-16T05:58:23;3.03;;;0.45;;
44766;SDS011;30487;48.716;9.272;2023-01-16T06:00:49;0.82;;;0.50;;
44766;SDS011;30487;48.716;9.272;2023-01-16T06:03:15;3.03;;;0.70;;
44766;SDS011;30487;48.716;9.272;2023-01-16T06:05:41;3.20;;;0.50;;
44766;SDS011;30487;48.716;9.272;2023-01-16T06:08:07;3.55;;;0.60;;
44766;SDS011;30487;48.716;9.272;2023-01-16T06:10:32;2.10;;;0.63;;
44766;SDS011;30487;48.716;9.272;2023-01-16T06:12:59;3.60;;;0.80;;
44766;SDS011;30487;48.716;9.272;2023-01-16T06:15:26;4.95;;;0.60;;
44766;SDS011;30487;48.716;9.272;2023-01-16T06:17:51;3.60;;;0.80;;
44766;SDS011;30487;48.716;9.272;2023-01-16T06:20:19;3.10;;;0.60;;
44766;SDS011;30487;48.716;9.272;2023-01-16T06:22:44;3.13;;;0.60;;
44766;SDS011;30487;48.716;9.272;2023-01-16T06:25:10;3.70;;;0.68;;
44766;SDS011;30487;48.716;9.272;2023-01-16T06:27:37;2.05;;;0.60;;
44766;SDS011;30487;48.716;9.272;2023-01-16T06:30:03;2.60;;;0.80;;
44766;SDS011;30487;48.716;9.272;2023-01-16T06:32:30;1.77;;;0.70;;
44766;SDS011;30487;48.716;9.272;2023-01-16T06:34:55;3.03;;;0.50;;
44766;SDS011;30487;48.716;9.272;2023-01-16T06:37:21;2.60;;;0.55;;
44766;SDS011;30487;48.716;9.272;2023-01-16T06:39:46;2.13;;;0.60;;
44766;SDS011;30487;48.716;9.272;2023-01-16T06:42:12;4.18;;;1.23;;
44766;SDS011;30487;48.716;9.272;2023-01-16T06:44:37;2.10;;;0.60;;
44766;SDS011;30487;48.716;9.272;2023-01-16T06:47:03;3.13;;;0.80;;
44766;SDS011;30487;48.716;9.272;2023-01-16T06:49:29;3.72;;;0.60;;
44766;SDS011;30487;48.716;9.272;2023-01-16T06:51:55;5.50;;;0.80;;
44766;SDS011;30487;48.716;9.272;2023-01-16T06:54:20;1.92;;;0.70;;
44766;SDS011;30487;48.716;9.272;2023-01-16T06:56:46;2.05;;;0.63;;
44766;SDS011;30487;48.716;9.272;2023-01-16T06:59:11;6.45;;;0.73;;
44766;SDS011;30487;48.716;9.272;2023-01-16T07:01:37;3.22;;;0.80;;
44766;SDS011;30487;48.716;9.272;2023-01-16T07:04:03;8.68;;;1.20;;
44766;SDS011;30487;48.716;9.272;2023-01-16T07:06:28;5.40;;;1.20;;
44766;SDS011;30487;48.716;9.272;2023-01-16T07:08:54;2.78;;;1.02;;
44766;SDS011;30487;48.716;9.272;2023-01-16T07:11:19;3.28;;;0.95;;
44766;SDS011;30487;48.716;9.272;2023-01-16T07:13:45;3.42;;;0.77;;
44766;SDS011;30487;48.716;9.272;2023-01-16T07:16:11;4.13;;;0.88;;
44766;SDS011;30487;48.716;9.272;2023-01-16T07:18:56;2.35;;;0.50;;
44766;SDS011;30487;48.716;9.272;2023-01-16T07:21:41;1.85;;;0.60;;
44766;SDS011;30487;48.716;9.272;2023-01-16T07:24:29;4.15;;;0.65;;
44766;SDS011;30487;48.716;9.272;2023-01-16T07:26:58;2.83;;;0.85;;
44766;SDS011;30487;48.716;9.272;2023-01-16T07:29:28;6.65;;;1.30;;
44766;SDS011;30487;48.716;9.272;2023-01-16T07:31:56;4.25;;;1.35;;
44766;SDS011;30487;48.716;9.272;2023-01-16T07:34:23;4.75;;;1.35;;
44766;SDS011;30487;48.716;9.272;2023-01-16T07:36:48;3.90;;;1.60;;
44766;SDS011;30487;48.716;9.272;2023-01-16T07:39:14;3.33;;;1.48;;
44766;SDS011;30487;48.716;9.272;2023-01-16T07:41:39;2.15;;;0.88;;
44766;SDS011;30487;48.716;9.272;2023-01-16T07:44:05;5.78;;;0.80;;
44766;SDS011;30487;48.716;9.272;2023-01-16T07:46:31;2.58;;;0.80;;
44766;SDS011;30487;48.716;9.272;2023-01-16T07:48:57;5.25;;;0.70;;
44766;SDS011;30487;48.716;9.272;2023-01-16T07:51:23;2.35;;;0.40;;
44766;SDS011;30487;48.716;9.272;2023-01-16T07:53:48;2.60;;;0.60;;
44766;SDS011;30487;48.716;9.272;2023-01-16T07:56:14;2.00;;;0.55;;
44766;SDS011;30487;48.716;9.272;2023-01-16T07:58:40;2.42;;;0.63;;
44766;SDS011;30487;48.716;9.272;2023-01-16T08:01:07;1.15;;;0.47;;
44766;SDS011;30487;48.716;9.272;2023-01-16T08:03:34;1.00;;;0.43;;
44766;SDS011;30487;48.716;9.272;2023-01-16T08:06:00;4.47;;;0.68;;
44766;SDS011;30487;48.716;9.272;2023-01-16T08:08:27;2.10;;;0.60;;
44766;SDS011;30487;48.716;9.272;2023-01-16T08:10:57;2.20;;;0.65;;
44766;SDS011;30487;48.716;9.272;2023-01-16T08:13:24;2.38;;;0.60;;
44766;SDS011;30487;48.716;9.272;2023-01-16T08:15:51;1.73;;;0.60;;
44766;SDS011;30487;48.716;9.272;2023-01-16T08:18:17;2.33;;;0.50;;
44766;SDS011;30487;48.716;9.272;2023-01-16T08:20:44;1.30;;;0.45;;
44766;SDS011;30487;48.716;9.272;2023-01-16T08:23:10;1.15;;;0.47;;
44766;SDS011;30487;48.716;9.272;2023-01-16T08:25:36;2.15;;;0.60;;
44766;SDS011;30487;48.716;9.272;2023-01-16T08:28:02;1.20;;;0.50;;
44766;SDS011;30487;48.716;9.272;2023-01-16T08:30:28;2.08;;;0.60;;
44766;SDS011;30487;48.716;9.272;2023-01-16T08:32:58;1.83;;;0.68;;
44766;SDS011;30487;48.716;9.272;2023-01-16T08:35:24;1.08;;;0.45;;
44766;SDS011;30487;48.716;9.272;2023-01-16T08:37:49;3.78;;;0.57;;
44766;SDS011;30487;48.716;9.272;2023-01-16T08:40:15;1.38;;;0.50;;
44766;SDS011;30487;48.716;9.272;2023-01-16T08:42:42;1.60;;;0.40;;
44766;SDS011;30487;48.716;9.272;2023-01-16T08:45:26;0.98;;;0.60;;
44766;SDS011;30487;48.716;9.272;2023-01-16T08:48:09;2.03;;;0.50;;
44766;SDS011;30487;48.716;9.272;2023-01-16T08:50:54;3.75;;;0.77;;
44766;SDS011;30487;48.716;9.272;2023-01-16T08:53:40;1.85;;;0.60;;
44766;SDS011;30487;48.716;9.272;2023-01-16T08:56:09;1.52;;;0.50;;
44766;SDS011;30487;48.716;9.272;2023-01-16T08:58:34;3.22;;;0.50;;
44766;SDS011;30487;48.716;9.272;2023-01-16T09:01:00;1.17;;;0.30;;
44766;SDS011;30487;48.716;9.272;2023-01-16T09:03:25;1.98;;;0.75;;
44766;SDS011;30487;48.716;9.272;2023-01-16T09:05:51;4.63;;;0.80;;
44766;SDS011;30487;48.716;9.272;2023-01-16T09:08:17;2.17;;;0.57;;
44766;SDS011;30487;48.716;9.272;2023-01-16T09:10:42;2.83;;;0.50;;
44766;SDS011;30487;48.716;9.272;2023-01-16T09:13:28;4.95;;;0.70;;
44766;SDS011;30487;48.716;9.272;2023-01-16T09:16:12;0.75;;;0.30;;
44766;SDS011;30487;48.716;9.272;2023-01-16T09:18:37;1.60;;;0.43;;
44766;SDS011;30487;48.716;9.272;2023-01-16T09:21:03;2.30;;;0.50;;
44766;SDS011;30487;48.716;9.272;2023-01-16T09:23:28;1.30;;;0.50;;
44766;SDS011;30487;48.716;9.272;2023-01-16T09:25:54;1.55;;;0.60;;
44766;SDS011;30487;48.716;9.272;2023-01-16T09:28:19;3.25;;;0.50;;
44766;SDS011;30487;48.716;9.272;2023-01-16T09:30:45;1.08;;;0.50;;
44766;SDS011;30487;48.716;9.272;2023-01-16T09:33:10;2.35;;;0.50;;
44766;SDS011;30487;48.716;9.272;2023-01-16T09:35:36;2.22;;;0.70;;
44766;SDS011;30487;48.716;9.272;2023-01-16T09:38:01;3.90;;;1.05;;
44766;SDS011;30487;48.716;9.272;2023-01-16T09:40:27;3.08;;;1.25;;
44766;SDS011;30487;48.716;9.272;2023-01-16T09:46:25;2.17;;;0.80;;
44766;SDS011;30487;48.716;9.272;2023-01-16T09:51:22;1.08;;;0.50;;
44766;SDS011;30487;48.716;9.272;2023-01-16T09:54:00;1.40;;;0.40;;
44766;SDS011;30487;48.716;9.272;2023-01-16T09:56:56;2.47;;;0.40;;
44766;SDS011;30487;48.716;9.272;2023-01-16T09:59:50;1.15;;;0.40;;
44766;SDS011;30487;48.716;9.272;2023-01-16T10:02:22;0.82;;;0.30;;
44766;SDS011;30487;48.716;9.272;2023-01-16T10:04:51;0.52;;;0.22;;
44766;SDS011;30487;48.716;9.272;2023-01-16T10:07:21;1.10;;;0.30;;
44766;SDS011;30487;48.716;9.272;2023-01-16T10:10:06;1.48;;;0.20;;
44766;SDS011;30487;48.716;9.272;2023-01-16T10:15:33;0.85;;;0.30;;
44766;SDS011;30487;48.716;9.272;2023-01-16T10:23:44;2.03;;;0.40;;
44766;SDS011;30487;48.716;9.272;2023-01-16T10:29:19;0.60;;;0.30;;
44766;SDS011;30487;48.716;9.272;2023-01-16T10:32:04;1.88;;;0.40;;
44766;SDS011;30487;48.716;9.272;2023-01-16T10:34:57;1.33;;;0.45;;
44766;SDS011;30487;48.716;9.272;2023-01-16T10:37:37;1.00;;;0.38;;
44766;SDS011;30487;48.716;9.272;2023-01-16T10:42:48;1.67;;;0.68;;
44766;SDS011;30487;48.716;9.272;2023-01-16T10:45:38;2.65;;;0.57;;
44766;SDS011;30487;48.716;9.272;2023-01-16T10:48:22;1.10;;;0.40;;
44766;SDS011;30487;48.716;9.272;2023-01-16T10:51:10;1.20;;;0.45;;
44766;SDS011;30487;48.716;9.272;2023-01-16T10:53:35;1.02;;;0.40;;
44766;SDS011;30487;48.716;9.272;2023-01-16T10:56:02;1.10;;;0.40;;
44766;SDS011;30487;48.716;9.272;2023-01-16T10:58:30;0.77;;;0.35;;
44766;SDS011;30487;48.716;9.272;2023-01-16T11:01:05;1.48;;;0.30;;
44766;SDS011;30487;48.716;9.272;2023-01-16T11:03:42;2.25;;;0.30;;
44766;SDS011;30487;48.716;9.272;2023-01-16T11:08:48;0.55;;;0.28;;
44766;SDS011;30487;48.716;9.272;2023-01-16T11:11:38;1.95;;;0.40;;
44766;SDS011;30487;48.716;9.272;2023-01-16T11:14:22;0.40;;;0.30;;
44766;SDS011;30487;48.716;9.272;2023-01-16T11:17:32;1.65;;;0.30;;
44766;SDS011;30487;48.716;9.272;2023-01-16T11:20:31;2.80;;;0.32;;
44766;SDS011;30487;48.716;9.272;2023-01-16T11:23:21;1.27;;;0.30;;
44766;SDS011;30487;48.716;9.272;2023-01-16T11:25:48;2.30;;;0.30;;
44766;SDS011;30487;48.716;9.272;2023-01-16T11:28:18;0.28;;;0.20;;
44766;SDS011;30487;48.716;9.272;2023-01-16T11:31:07;0.80;;;0.30;;
44766;SDS011;30487;48.716;9.272;2023-01-16T11:33:36;1.75;;;0.32;;
44766;SDS011;30487;48.716;9.272;2023-01-16T11:36:06;1.13;;;0.30;;
44766;SDS011;30487;48.716;9.272;2023-01-16T11:38:33;0.80;;;0.30;;
44766;SDS011;30487;48.716;9.272;2023-01-16T11:41:02;2.30;;;0.40;;
44766;SDS011;30487;48.716;9.272;2023-01-16T11:43:32;1.17;;;0.30;;
44766;SDS011;30487;48.716;9.272;2023-01-16T11:49:23;0.80;;;0.30;;
44766;SDS011;30487;48.716;9.272;2023-01-16T11:51:52;1.65;;;0.30;;
44766;SDS011;30487;48.716;9.272;2023-01-16T11:54:24;1.77;;;0.30;;
44766;SDS011;30487;48.716;9.272;2023-01-16T11:56:57;0.95;;;0.40;;
44766;SDS011;30487;48.716;9.272;2023-01-16T11:59:41;0.50;;;0.30;;
44766;SDS011;30487;48.716;9.272;2023-01-16T12:02:21;0.80;;;0.20;;
44766;SDS011;30487;48.716;9.272;2023-01-16T12:10:47;0.57;;;0.30;;
44766;SDS011;30487;48.716;9.272;2023-01-16T12:13:41;1.38;;;0.40;;
44766;SDS011;30487;48.716;9.272;2023-01-16T12:24:56;2.85;;;0.20;;
44766;SDS011;30487;48.716;9.272;2023-01-16T12:33:05;1.83;;;0.30;;
44766;SDS011;30487;48.716;9.272;2023-01-16T12:38:35;0.60;;;0.30;;
44766;SDS011;30487;48.716;9.272;2023-01-16T12:41:16;0.77;;;0.20;;
44766;SDS011;30487;48.716;9.272;2023-01-16T12:47:03;1.90;;;0.35;;
44766;SDS011;30487;48.716;9.272;2023-01-16T12:49:55;1.00;;;0.40;;
44766;SDS011;30487;48.716;9.272;2023-01-16T12:57:57;1.13;;;0.40;;
44766;SDS011;30487;48.716;9.272;2023-01-16T13:00:38;3.45;;;0.40;;
44766;SDS011;30487;48.716;9.272;2023-01-16T13:06:03;2.30;;;0.40;;
44766;SDS011;30487;48.716;9.272;2023-01-16T13:08:44;3.53;;;0.50;;
44766;SDS011;30487;48.716;9.272;2023-01-16T13:11:20;1.05;;;0.40;;
44766;SDS011;30487;48.716;9.272;2023-01-16T13:14:08;0.50;;;0.30;;
44766;SDS011;30487;48.716;9.272;2023-01-16T13:22:47;0.45;;;0.22;;
44766;SDS011;30487;48.716;9.272;2023-01-16T13:27:47;0.30;;;0.20;;
44766;SDS011;30487;48.716;9.272;2023-01-16T13:30:25;0.82;;;0.28;;
44766;SDS011;30487;48.716;9.272;2023-01-16T13:32:52;0.30;;;0.20;;
44766;SDS011;30487;48.716;9.272;2023-01-16T13:43:33;0.57;;;0.30;;
44766;SDS011;30487;48.716;9.272;2023-01-16T13:46:21;0.60;;;0.40;;
44766;SDS011;30487;48.716;9.272;2023-01-16T13:48:54;0.65;;;0.40;;
44766;SDS011;30487;48.716;9.272;2023-01-16T13:51:24;0.60;;;0.28;;
44766;SDS011;30487;48.716;9.272;2023-01-16T13:53:51;1.35;;;0.40;;
44766;SDS011;30487;48.716;9.272;2023-01-16T13:56:23;0.40;;;0.30;;
44766;SDS011;30487;48.716;9.272;2023-01-16T14:06:47;0.45;;;0.30;;
44766;SDS011;30487;48.716;9.272;2023-01-16T14:17:28;0.57;;;0.30;;
44766;SDS011;30487;48.716;9.272;2023-01-16T14:23:30;0.40;;;0.30;;
44766;SDS011;30487;48.716;9.272;2023-01-16T14:29:34;1.15;;;0.60;;
44766;SDS011;30487;48.716;9.272;2023-01-16T14:34:33;0.57;;;0.30;;
44766;SDS011;30487;48.716;9.272;2023-01-16T14:37:02;0.47;;;0.30;;
44766;SDS011;30487;48.716;9.272;2023-01-16T14:40:17;0.63;;;0.30;;
44766;SDS011;30487;48.716;9.272;2023-01-16T14:45:21;0.98;;;0.50;;
44766;SDS011;30487;48.716;9.272;2023-01-16T14:50:56;3.47;;;0.30;;
44766;SDS011;30487;48.716;9.272;2023-01-16T14:56:42;1.15;;;0.40;;
44766;SDS011;30487;48.716;9.272;2023-01-16T15:01:47;0.50;;;0.30;;
44766;SDS011;30487;48.716;9.272;2023-01-16T15:04:41;1.30;;;0.40;;
44766;SDS011;30487;48.716;9.272;2023-01-16T15:07:17;0.38;;;0.20;;
44766;SDS011;30487;48.716;9.272;2023-01-16T15:10:12;1.27;;;0.30;;
44766;SDS011;30487;48.716;9.272;2023-01-16T15:12:40;2.85;;;0.30;;
44766;SDS011;30487;48.716;9.272;2023-01-16T15:15:23;2.33;;;0.40;;
44766;SDS011;30487;48.716;9.272;2023-01-16T15:17:52;0.88;;;0.40;;
44766;SDS011;30487;48.716;9.272;2023-01-16T15:20:38;0.60;;;0.30;;
44766;SDS011;30487;48.716;9.272;2023-01-16T15:23:32;1.92;;;0.32;;
44766;SDS011;30487;48.716;9.272;2023-01-16T15:28:33;1.63;;;0.47;;
44766;SDS011;30487;48.716;9.272;2023-01-16T15:31:05;0.77;;;0.40;;
44766;SDS011;30487;48.716;9.272;2023-01-16T15:34:01;1.20;;;0.50;;
44766;SDS011;30487;48.716;9.272;2023-01-16T15:36:37;1.60;;;0.50;;
44766;SDS011;30487;48.716;9.272;2023-01-16T15:42:12;0.52;;;0.30;;
44766;SDS011;30487;48.716;9.272;2023-01-16T15:45:01;0.90;;;0.35;;
44766;SDS011;30487;48.716;9.272;2023-01-16T15:53:17;0.20;;;0.20;;
44766;SDS011;30487;48.716;9.272;2023-01-16T15:55:45;0.60;;;0.30;;
44766;SDS011;30487;48.716;9.272;2023-01-16T15:58:15;0.55;;;0.32;;
44766;SDS011;30487;48.716;9.272;2023-01-16T16:00:53;1.45;;;0.40;;
44766;SDS011;30487;48.716;9.272;2023-01-16T16:03:30;1.00;;;0.30;;
44766;SDS011;30487;48.716;9.272;2023-01-16T16:06:08;1.20;;;0.30;;
44766;SDS011;30487;48.716;9.272;2023-01-16T16:08:43;1.05;;;0.45;;
44766;SDS011;30487;48.716;9.272;2023-01-16T16:11:15;2.17;;;0.60;;
44766;SDS011;30487;48.716;9.272;2023-01-16T16:14:57;1.10;;;0.40;;
44766;SDS011;30487;48.716;9.272;2023-01-16T16:25:32;0.50;;;0.40;;
44766;SDS011;30487;48.716;9.272;2023-01-16T16:28:04;0.68;;;0.30;;
44766;SDS011;30487;48.716;9.272;2023-01-16T16:30:40;1.10;;;0.50;;
44766;SDS011;30487;48.716;9.272;2023-01-16T16:33:12;0.90;;;0.40;;
44766;SDS011;30487;48.716;9.272;2023-01-16T16:35:46;1.63;;;0.30;;
44766;SDS011;30487;48.716;9.272;2023-01-16T16:38:29;0.80;;;0.40;;
44766;SDS011;30487;48.716;9.272;2023-01-16T16:43:41;1.27;;;0.38;;
44766;SDS011;30487;48.716;9.272;2023-01-16T16:51:18;1.10;;;0.60;;
44766;SDS011;30487;48.716;9.272;2023-01-16T16:53:58;0.60;;;0.40;;
44766;SDS011;30487;48.716;9.272;2023-01-16T16:56:25;1.15;;;0.40;;
44766;SDS011;30487;48.716;9.272;2023-01-16T16:58:54;1.05;;;0.43;;
44766;SDS011;30487;48.716;9.272;2023-01-16T17:01:21;1.77;;;0.60;;
44766;SDS011;30487;48.716;9.272;2023-01-16T17:03:49;1.00;;;0.43;;
44766;SDS011;30487;48.716;9.272;2023-01-16T17:06:18;0.65;;;0.40;;
44766;SDS011;30487;48.716;9.272;2023-01-16T17:08:46;3.53;;;0.50;;
44766;SDS011;30487;48.716;9.272;2023-01-16T17:11:12;2.70;;;0.30;;
44766;SDS011;30487;48.716;9.272;2023-01-16T17:13:38;0.57;;;0.35;;
44766;SDS011;30487;48.716;9.272;2023-01-16T17:16:04;0.40;;;0.25;;
44766;SDS011;30487;48.716;9.272;2023-01-16T17:18:36;0.77;;;0.20;;
44766;SDS011;30487;48.716;9.272;2023-01-16T17:21:01;2.53;;;0.32;;
44766;SDS011;30487;48.716;9.272;2023-01-16T17:23:27;0.75;;;0.40;;
44766;SDS011;30487;48.716;9.272;2023-01-16T17:25:52;0.47;;;0.22;;
44766;SDS011;30487;48.716;9.272;2023-01-16T17:28:18;0.50;;;0.28;;
44766;SDS011;30487;48.716;9.272;2023-01-16T17:30:44;0.60;;;0.30;;
44766;SDS011;30487;48.716;9.272;2023-01-16T17:33:16;0.77;;;0.40;;
44766;SDS011;30487;48.716;9.272;2023-01-16T17:35:45;4.75;;;0.40;;
44766;SDS011;30487;48.716;9.272;2023-01-16T17:38:18;2.03;;;0.30;;
44766;SDS011;30487;48.716;9.272;2023-01-16T17:40:45;0.30;;;0.20;;
44766;SDS011;30487;48.716;9.272;2023-01-16T17:43:15;0.70;;;0.30;;
44766;SDS011;30487;48.716;9.272;2023-01-16T17:46:14;0.88;;;0.30;;
44766;SDS011;30487;48.716;9.272;2023-01-16T17:48:41;0.40;;;0.30;;
44766;SDS011;30487;48.716;9.272;2023-01-16T17:51:07;0.47;;;0.22;;
44766;SDS011;30487;48.716;9.272;2023-01-16T17:53:33;1.50;;;0.40;;
44766;SDS011;30487;48.716;9.272;2023-01-16T17:56:01;0.52;;;0.20;;
44766;SDS011;30487;48.716;9.272;2023-01-16T17:58:29;0.45;;;0.20;;
44766;SDS011;30487;48.716;9.272;2023-01-16T18:01:12;0.75;;;0.35;;
44766;SDS011;30487;48.716;9.272;2023-01-16T18:03:43;0.47;;;0.40;;
44766;SDS011;30487;48.716;9.272;2023-01-16T18:06:24;0.65;;;0.35;;
44766;SDS011;30487;48.716;9.272;2023-01-16T18:08:51;0.55;;;0.30;;
44766;SDS011;30487;48.716;9.272;2023-01-16T18:11:18;0.52;;;0.30;;
44766;SDS011;30487;48.716;9.272;2023-01-16T18:14:03;0.93;;;0.40;;
44766;SDS011;30487;48.716;9.272;2023-01-16T18:16:48;0.85;;;0.40;;
44766;SDS011;30487;48.716;9.272;2023-01-16T18:19:32;1.02;;;0.43;;
44766;SDS011;30487;48.716;9.272;2023-01-16T18:21:58;0.55;;;0.40;;
44766;SDS011;30487;48.716;9.272;2023-01-16T18:24:31;1.40;;;0.35;;
44766;SDS011;30487;48.716;9.272;2023-01-16T18:26:58;0.82;;;0.35;;